sensor_id;sensor_type;location;lat;lon;timestamp;P1;durP1;ratioP1;P2;durP2;ratioP2
13197;SDS011;6664;52.514;13.440;2023-07-20T00:00:37;3.90;;;3.50;;
13197;SDS011;6664;52.514;13.440;2023-07-20T00:03:23;3.13;;;2.93;;
13197;SDS011;6664;52.514;13.440;2023-07-20T00:06:10;3.40;;;2.63;;
13197;SDS011;6664;52.514;13.440;2023-07-20T00:08:58;3.30;;;3.00;;
13197;SDS011;6664;52.514;13.440;2023-07-20T00:11:50;3.87;;;3.10;;
13197;SDS011;6664;52.514;13.440;2023-07-20T00:14:36;2.90;;;2.70;;
13197;SDS011;6664;52.514;13.440;2023-07-20T00:17:22;3.20;;;3.00;;
13197;SDS011;6664;52.514;13.440;2023-07-20T00:20:08;4.50;;;3.20;;
13197;SDS011;6664;52.514;13.440;2023-07-20T00:22:54;3.40;;;3.10;;
13197;SDS011;6664;52.514;13.440;2023-07-20T00:25:42;6.60;;;3.50;;
13197;SDS011;6664;52.514;13.440;2023-07-20T00:28:32;3.57;;;3.27;;
13197;SDS011;6664;52.514;13.440;2023-07-20T00:31:18;3.07;;;2.77;;
13197;SDS011;6664;52.514;13.440;2023-07-20T00:34:04;3.13;;;2.90;;
13197;SDS011;6664;52.514;13.440;2023-07-20T00:36:53;3.37;;;3.07;;
13197;SDS011;6664;52.514;13.440;2023-07-20T00:39:39;3.50;;;2.57;;
13197;SDS011;6664;52.514;13.440;2023-07-20T00:42:24;3.30;;;3.10;;
13197;SDS011;6664;52.514;13.440;2023-07-20T00:45:10;3.10;;;2.90;;
13197;SDS011;6664;52.514;13.440;2023-07-20T00:48:00;4.00;;;3.60;;
13197;SDS011;6664;52.514;13.440;2023-07-20T00:50:49;4.23;;;3.77;;
13197;SDS011;6664;52.514;13.440;2023-07-20T00:53:35;3.53;;;3.33;;
13197;SDS011;6664;52.514;13.440;2023-07-20T00:56:21;5.00;;;4.50;;
13197;SDS011;6664;52.514;13.440;2023-07-20T00:59:09;7.50;;;3.87;;
13197;SDS011;6664;52.514;13.440;2023-07-20T01:01:56;4.30;;;4.00;;
13197;SDS011;6664;52.514;13.440;2023-07-20T01:04:41;4.93;;;3.50;;
13197;SDS011;6664;52.514;13.440;2023-07-20T01:10:24;5.90;;;3.27;;
13197;SDS011;6664;52.514;13.440;2023-07-20T01:13:16;4.73;;;3.60;;
13197;SDS011;6664;52.514;13.440;2023-07-20T01:16:04;4.37;;;3.83;;
13197;SDS011;6664;52.514;13.440;2023-07-20T01:18:50;3.77;;;3.50;;
13197;SDS011;6664;52.514;13.440;2023-07-20T01:21:47;4.50;;;4.10;;
13197;SDS011;6664;52.514;13.440;2023-07-20T01:28:43;3.87;;;3.60;;
13197;SDS011;6664;52.514;13.440;2023-07-20T01:34:17;5.27;;;3.73;;
13197;SDS011;6664;52.514;13.440;2023-07-20T01:37:03;3.60;;;3.30;;
13197;SDS011;6664;52.514;13.440;2023-07-20T01:39:52;4.23;;;3.83;;
13197;SDS011;6664;52.514;13.440;2023-07-20T01:42:43;6.50;;;3.40;;
13197;SDS011;6664;52.514;13.440;2023-07-20T01:45:31;3.97;;;3.67;;
13197;SDS011;6664;52.514;13.440;2023-07-20T01:48:16;6.30;;;5.03;;
13197;SDS011;6664;52.514;13.440;2023-07-20T01:51:04;5.20;;;4.53;;
13197;SDS011;6664;52.514;13.440;2023-07-20T01:53:50;5.23;;;4.20;;
13197;SDS011;6664;52.514;13.440;2023-07-20T01:56:35;4.90;;;4.07;;
13197;SDS011;6664;52.514;13.440;2023-07-20T01:59:20;4.40;;;3.83;;
13197;SDS011;6664;52.514;13.440;2023-07-20T02:02:06;3.40;;;3.20;;
13197;SDS011;6664;52.514;13.440;2023-07-20T02:04:54;4.30;;;3.60;;
13197;SDS011;6664;52.514;13.440;2023-07-20T02:07:40;3.70;;;3.40;;
13197;SDS011;6664;52.514;13.440;2023-07-20T02:10:25;3.70;;;3.30;;
13197;SDS011;6664;52.514;13.440;2023-07-20T02:13:10;3.53;;;3.33;;
13197;SDS011;6664;52.514;13.440;2023-07-20T02:15:56;4.20;;;3.80;;
13197;SDS011;6664;52.514;13.440;2023-07-20T02:18:41;3.53;;;3.33;;
13197;SDS011;6664;52.514;13.440;2023-07-20T02:21:31;3.80;;;3.50;;
13197;SDS011;6664;52.514;13.440;2023-07-20T02:24:17;4.20;;;3.90;;
13197;SDS011;6664;52.514;13.440;2023-07-20T02:27:03;3.87;;;3.57;;
13197;SDS011;6664;52.514;13.440;2023-07-20T02:29:52;3.97;;;3.67;;
13197;SDS011;6664;52.514;13.440;2023-07-20T02:32:39;4.67;;;4.27;;
13197;SDS011;6664;52.514;13.440;2023-07-20T02:35:25;4.60;;;4.10;;
13197;SDS011;6664;52.514;13.440;2023-07-20T02:38:10;4.50;;;4.20;;
13197;SDS011;6664;52.514;13.440;2023-07-20T02:40:58;7.10;;;4.20;;
13197;SDS011;6664;52.514;13.440;2023-07-20T02:43:43;8.50;;;5.80;;
13197;SDS011;6664;52.514;13.440;2023-07-20T02:46:29;5.70;;;5.20;;
13197;SDS011;6664;52.514;13.440;2023-07-20T02:49:15;11.20;;;6.50;;
13197;SDS011;6664;52.514;13.440;2023-07-20T02:52:00;6.63;;;5.90;;
13197;SDS011;6664;52.514;13.440;2023-07-20T02:54:46;6.13;;;5.63;;
13197;SDS011;6664;52.514;13.440;2023-07-20T02:57:36;8.13;;;7.33;;
13197;SDS011;6664;52.514;13.440;2023-07-20T03:00:22;7.70;;;6.73;;
13197;SDS011;6664;52.514;13.440;2023-07-20T03:03:11;7.50;;;5.90;;
13197;SDS011;6664;52.514;13.440;2023-07-20T03:05:57;8.13;;;6.30;;
13197;SDS011;6664;52.514;13.440;2023-07-20T03:08:44;8.17;;;7.20;;
13197;SDS011;6664;52.514;13.440;2023-07-20T03:11:32;7.77;;;6.60;;
13197;SDS011;6664;52.514;13.440;2023-07-20T03:14:19;9.10;;;7.90;;
13197;SDS011;6664;52.514;13.440;2023-07-20T03:17:04;7.80;;;7.00;;
13197;SDS011;6664;52.514;13.440;2023-07-20T03:19:50;10.23;;;7.27;;
13197;SDS011;6664;52.514;13.440;2023-07-20T03:22:35;6.83;;;6.13;;
13197;SDS011;6664;52.514;13.440;2023-07-20T03:25:21;9.57;;;7.33;;
13197;SDS011;6664;52.514;13.440;2023-07-20T03:28:09;7.60;;;6.77;;
13197;SDS011;6664;52.514;13.440;2023-07-20T03:30:55;7.80;;;6.80;;
13197;SDS011;6664;52.514;13.440;2023-07-20T03:33:41;9.33;;;7.50;;
13197;SDS011;6664;52.514;13.440;2023-07-20T03:36:27;8.40;;;6.43;;
13197;SDS011;6664;52.514;13.440;2023-07-20T03:39:13;8.03;;;6.70;;
13197;SDS011;6664;52.514;13.440;2023-07-20T03:41:59;6.40;;;5.70;;
13197;SDS011;6664;52.514;13.440;2023-07-20T03:44:47;6.67;;;5.97;;
13197;SDS011;6664;52.514;13.440;2023-07-20T03:47:33;9.53;;;6.90;;
13197;SDS011;6664;52.514;13.440;2023-07-20T03:50:18;7.33;;;6.60;;
13197;SDS011;6664;52.514;13.440;2023-07-20T03:53:04;12.33;;;6.40;;
13197;SDS011;6664;52.514;13.440;2023-07-20T03:55:52;8.70;;;6.63;;
13197;SDS011;6664;52.514;13.440;2023-07-20T03:58:41;7.03;;;5.87;;
13197;SDS011;6664;52.514;13.440;2023-07-20T04:01:30;7.53;;;6.37;;
13197;SDS011;6664;52.514;13.440;2023-07-20T04:04:21;7.93;;;6.03;;
13197;SDS011;6664;52.514;13.440;2023-07-20T04:07:10;9.87;;;6.07;;
13197;SDS011;6664;52.514;13.440;2023-07-20T04:09:56;6.77;;;5.70;;
13197;SDS011;6664;52.514;13.440;2023-07-20T04:12:41;6.90;;;6.30;;
13197;SDS011;6664;52.514;13.440;2023-07-20T04:15:26;7.50;;;6.23;;
13197;SDS011;6664;52.514;13.440;2023-07-20T04:18:12;6.33;;;5.73;;
13197;SDS011;6664;52.514;13.440;2023-07-20T04:20:58;7.40;;;6.40;;
13197;SDS011;6664;52.514;13.440;2023-07-20T04:23:46;5.93;;;5.13;;
13197;SDS011;6664;52.514;13.440;2023-07-20T04:26:33;6.77;;;6.10;;
13197;SDS011;6664;52.514;13.440;2023-07-20T04:29:19;8.17;;;6.50;;
13197;SDS011;6664;52.514;13.440;2023-07-20T04:32:05;8.73;;;7.00;;
13197;SDS011;6664;52.514;13.440;2023-07-20T04:34:53;8.80;;;6.50;;
13197;SDS011;6664;52.514;13.440;2023-07-20T04:37:42;6.10;;;5.50;;
13197;SDS011;6664;52.514;13.440;2023-07-20T04:40:33;6.30;;;5.70;;
13197;SDS011;6664;52.514;13.440;2023-07-20T04:43:18;6.20;;;5.60;;
13197;SDS011;6664;52.514;13.440;2023-07-20T04:46:04;7.03;;;5.70;;
13197;SDS011;6664;52.514;13.440;2023-07-20T04:48:50;6.80;;;6.03;;
13197;SDS011;6664;52.514;13.440;2023-07-20T04:51:35;5.97;;;4.77;;
13197;SDS011;6664;52.514;13.440;2023-07-20T04:54:21;8.30;;;5.07;;
13197;SDS011;6664;52.514;13.440;2023-07-20T04:57:10;5.73;;;5.17;;
13197;SDS011;6664;52.514;13.440;2023-07-20T04:59:57;5.73;;;5.23;;
13197;SDS011;6664;52.514;13.440;2023-07-20T05:02:45;6.70;;;5.93;;
13197;SDS011;6664;52.514;13.440;2023-07-20T05:05:32;7.50;;;5.20;;
13197;SDS011;6664;52.514;13.440;2023-07-20T05:08:18;6.67;;;5.57;;
13197;SDS011;6664;52.514;13.440;2023-07-20T05:11:03;6.23;;;5.47;;
13197;SDS011;6664;52.514;13.440;2023-07-20T05:13:51;6.30;;;5.03;;
13197;SDS011;6664;52.514;13.440;2023-07-20T05:16:39;6.67;;;4.70;;
13197;SDS011;6664;52.514;13.440;2023-07-20T05:19:25;4.77;;;4.37;;
13197;SDS011;6664;52.514;13.440;2023-07-20T05:22:13;5.27;;;4.10;;
13197;SDS011;6664;52.514;13.440;2023-07-20T05:25:01;4.73;;;4.33;;
13197;SDS011;6664;52.514;13.440;2023-07-20T05:27:47;4.77;;;4.37;;
13197;SDS011;6664;52.514;13.440;2023-07-20T05:30:35;4.23;;;3.60;;
13197;SDS011;6664;52.514;13.440;2023-07-20T05:33:27;5.00;;;3.97;;
13197;SDS011;6664;52.514;13.440;2023-07-20T05:36:13;4.57;;;3.47;;
13197;SDS011;6664;52.514;13.440;2023-07-20T05:39:08;6.27;;;3.87;;
13197;SDS011;6664;52.514;13.440;2023-07-20T05:41:53;4.17;;;3.77;;
13197;SDS011;6664;52.514;13.440;2023-07-20T05:44:41;6.40;;;4.10;;
13197;SDS011;6664;52.514;13.440;2023-07-20T05:47:27;4.20;;;3.80;;
13197;SDS011;6664;52.514;13.440;2023-07-20T05:50:15;6.57;;;4.13;;
13197;SDS011;6664;52.514;13.440;2023-07-20T05:53:01;4.60;;;4.10;;
13197;SDS011;6664;52.514;13.440;2023-07-20T05:55:51;9.57;;;5.23;;
13197;SDS011;6664;52.514;13.440;2023-07-20T05:58:40;4.67;;;4.27;;
13197;SDS011;6664;52.514;13.440;2023-07-20T06:01:28;4.63;;;4.20;;
13197;SDS011;6664;52.514;13.440;2023-07-20T06:04:14;4.33;;;3.63;;
13197;SDS011;6664;52.514;13.440;2023-07-20T06:07:00;4.27;;;3.87;;
13197;SDS011;6664;52.514;13.440;2023-07-20T06:09:46;4.63;;;4.13;;
13197;SDS011;6664;52.514;13.440;2023-07-20T06:12:31;4.80;;;4.40;;
13197;SDS011;6664;52.514;13.440;2023-07-20T06:15:31;6.70;;;4.03;;
13197;SDS011;6664;52.514;13.440;2023-07-20T06:18:19;4.00;;;3.70;;
13197;SDS011;6664;52.514;13.440;2023-07-20T06:21:06;4.40;;;4.00;;
13197;SDS011;6664;52.514;13.440;2023-07-20T06:23:54;5.30;;;4.33;;
13197;SDS011;6664;52.514;13.440;2023-07-20T06:26:43;4.57;;;4.07;;
13197;SDS011;6664;52.514;13.440;2023-07-20T06:29:29;4.47;;;4.03;;
13197;SDS011;6664;52.514;13.440;2023-07-20T06:32:17;3.97;;;3.67;;
13197;SDS011;6664;52.514;13.440;2023-07-20T06:35:02;4.57;;;2.90;;
13197;SDS011;6664;52.514;13.440;2023-07-20T06:37:48;3.87;;;3.13;;
13197;SDS011;6664;52.514;13.440;2023-07-20T06:40:38;5.87;;;3.10;;
13197;SDS011;6664;52.514;13.440;2023-07-20T06:43:24;2.70;;;2.50;;
13197;SDS011;6664;52.514;13.440;2023-07-20T06:46:12;5.20;;;3.47;;
13197;SDS011;6664;52.514;13.440;2023-07-20T06:48:58;4.00;;;2.90;;
13197;SDS011;6664;52.514;13.440;2023-07-20T06:51:46;3.43;;;2.33;;
13197;SDS011;6664;52.514;13.440;2023-07-20T06:54:32;2.90;;;2.50;;
13197;SDS011;6664;52.514;13.440;2023-07-20T06:57:20;3.23;;;2.13;;
13197;SDS011;6664;52.514;13.440;2023-07-20T07:00:09;2.93;;;1.90;;
13197;SDS011;6664;52.514;13.440;2023-07-20T07:02:57;2.10;;;1.97;;
13197;SDS011;6664;52.514;13.440;2023-07-20T07:05:47;1.90;;;1.80;;
13197;SDS011;6664;52.514;13.440;2023-07-20T07:08:41;2.03;;;1.60;;
13197;SDS011;6664;52.514;13.440;2023-07-20T07:11:27;3.37;;;2.03;;
13197;SDS011;6664;52.514;13.440;2023-07-20T07:14:13;2.27;;;2.07;;
13197;SDS011;6664;52.514;13.440;2023-07-20T07:16:59;1.77;;;1.47;;
13197;SDS011;6664;52.514;13.440;2023-07-20T07:19:49;2.10;;;1.90;;
13197;SDS011;6664;52.514;13.440;2023-07-20T07:22:34;1.40;;;1.27;;
13197;SDS011;6664;52.514;13.440;2023-07-20T07:25:20;1.77;;;1.33;;
13197;SDS011;6664;52.514;13.440;2023-07-20T07:28:07;1.33;;;1.23;;
13197;SDS011;6664;52.514;13.440;2023-07-20T07:30:54;1.20;;;1.10;;
13197;SDS011;6664;52.514;13.440;2023-07-20T07:33:42;2.30;;;1.20;;
13197;SDS011;6664;52.514;13.440;2023-07-20T07:36:35;1.87;;;1.00;;
13197;SDS011;6664;52.514;13.440;2023-07-20T07:39:23;0.90;;;0.90;;
13197;SDS011;6664;52.514;13.440;2023-07-20T07:42:15;0.80;;;0.80;;
13197;SDS011;6664;52.514;13.440;2023-07-20T07:45:03;1.47;;;1.30;;
13197;SDS011;6664;52.514;13.440;2023-07-20T07:47:51;1.57;;;1.10;;
13197;SDS011;6664;52.514;13.440;2023-07-20T07:50:37;1.63;;;1.50;;
13197;SDS011;6664;52.514;13.440;2023-07-20T07:53:25;2.53;;;0.90;;
13197;SDS011;6664;52.514;13.440;2023-07-20T07:56:11;1.73;;;1.20;;
13197;SDS011;6664;52.514;13.440;2023-07-20T07:58:57;1.07;;;1.07;;
13197;SDS011;6664;52.514;13.440;2023-07-20T08:01:42;1.73;;;1.10;;
13197;SDS011;6664;52.514;13.440;2023-07-20T08:04:28;5.70;;;1.20;;
13197;SDS011;6664;52.514;13.440;2023-07-20T08:07:14;1.10;;;1.10;;
13197;SDS011;6664;52.514;13.440;2023-07-20T08:10:01;1.20;;;1.10;;
13197;SDS011;6664;52.514;13.440;2023-07-20T08:12:48;1.47;;;0.90;;
13197;SDS011;6664;52.514;13.440;2023-07-20T08:15:34;2.63;;;1.20;;
13197;SDS011;6664;52.514;13.440;2023-07-20T08:18:19;0.97;;;0.90;;
13197;SDS011;6664;52.514;13.440;2023-07-20T08:21:07;1.00;;;0.90;;
13197;SDS011;6664;52.514;13.440;2023-07-20T08:23:53;0.97;;;0.83;;
13197;SDS011;6664;52.514;13.440;2023-07-20T08:26:41;0.80;;;0.80;;
13197;SDS011;6664;52.514;13.440;2023-07-20T08:29:29;0.67;;;0.67;;
13197;SDS011;6664;52.514;13.440;2023-07-20T08:32:14;1.37;;;0.70;;
13197;SDS011;6664;52.514;13.440;2023-07-20T08:35:00;1.03;;;0.93;;
13197;SDS011;6664;52.514;13.440;2023-07-20T08:37:46;0.67;;;0.67;;
13197;SDS011;6664;52.514;13.440;2023-07-20T08:40:32;0.80;;;0.80;;
13197;SDS011;6664;52.514;13.440;2023-07-20T08:43:20;0.70;;;0.70;;
13197;SDS011;6664;52.514;13.440;2023-07-20T08:46:13;0.80;;;0.80;;
13197;SDS011;6664;52.514;13.440;2023-07-20T08:48:59;0.77;;;0.77;;
13197;SDS011;6664;52.514;13.440;2023-07-20T08:51:48;2.10;;;0.80;;
13197;SDS011;6664;52.514;13.440;2023-07-20T08:54:35;0.70;;;0.70;;
13197;SDS011;6664;52.514;13.440;2023-07-20T08:57:24;0.67;;;0.67;;
13197;SDS011;6664;52.514;13.440;2023-07-20T09:00:10;0.67;;;0.67;;
13197;SDS011;6664;52.514;13.440;2023-07-20T09:02:58;0.70;;;0.70;;
13197;SDS011;6664;52.514;13.440;2023-07-20T09:05:45;0.90;;;0.60;;
13197;SDS011;6664;52.514;13.440;2023-07-20T09:08:33;1.20;;;0.63;;
13197;SDS011;6664;52.514;13.440;2023-07-20T09:11:23;0.97;;;0.97;;
13197;SDS011;6664;52.514;13.440;2023-07-20T09:14:10;0.60;;;0.60;;
13197;SDS011;6664;52.514;13.440;2023-07-20T09:16:55;0.70;;;0.70;;
13197;SDS011;6664;52.514;13.440;2023-07-20T09:19:47;0.60;;;0.60;;
13197;SDS011;6664;52.514;13.440;2023-07-20T09:22:33;0.80;;;0.70;;
13197;SDS011;6664;52.514;13.440;2023-07-20T09:25:19;0.80;;;0.80;;
13197;SDS011;6664;52.514;13.440;2023-07-20T09:28:12;0.80;;;0.80;;
13197;SDS011;6664;52.514;13.440;2023-07-20T09:30:58;3.20;;;0.90;;
13197;SDS011;6664;52.514;13.440;2023-07-20T09:34:01;0.83;;;0.83;;
13197;SDS011;6664;52.514;13.440;2023-07-20T09:36:49;1.00;;;1.00;;
13197;SDS011;6664;52.514;13.440;2023-07-20T09:39:43;1.50;;;1.40;;
13197;SDS011;6664;52.514;13.440;2023-07-20T09:42:33;0.70;;;0.70;;
13197;SDS011;6664;52.514;13.440;2023-07-20T09:45:21;1.20;;;0.93;;
13197;SDS011;6664;52.514;13.440;2023-07-20T09:48:27;1.00;;;0.90;;
13197;SDS011;6664;52.514;13.440;2023-07-20T09:51:16;2.20;;;0.80;;
13197;SDS011;6664;52.514;13.440;2023-07-20T09:54:05;0.70;;;0.70;;
13197;SDS011;6664;52.514;13.440;2023-07-20T09:56:53;0.80;;;0.70;;
13197;SDS011;6664;52.514;13.440;2023-07-20T09:59:39;1.00;;;0.70;;
13197;SDS011;6664;52.514;13.440;2023-07-20T10:02:25;0.70;;;0.70;;
13197;SDS011;6664;52.514;13.440;2023-07-20T10:05:20;1.43;;;0.73;;
13197;SDS011;6664;52.514;13.440;2023-07-20T10:08:07;0.80;;;0.80;;
13197;SDS011;6664;52.514;13.440;2023-07-20T10:10:59;1.13;;;0.80;;
13197;SDS011;6664;52.514;13.440;2023-07-20T10:13:50;1.13;;;0.60;;
13197;SDS011;6664;52.514;13.440;2023-07-20T10:16:42;0.90;;;0.80;;
13197;SDS011;6664;52.514;13.440;2023-07-20T10:19:34;2.47;;;1.23;;
13197;SDS011;6664;52.514;13.440;2023-07-20T10:22:35;1.03;;;0.87;;
13197;SDS011;6664;52.514;13.440;2023-07-20T10:25:26;10.37;;;1.20;;
13197;SDS011;6664;52.514;13.440;2023-07-20T10:28:13;1.17;;;0.83;;
13197;SDS011;6664;52.514;13.440;2023-07-20T10:30:59;1.47;;;1.00;;
13197;SDS011;6664;52.514;13.440;2023-07-20T10:33:45;0.90;;;0.90;;
13197;SDS011;6664;52.514;13.440;2023-07-20T10:36:31;0.90;;;0.90;;
13197;SDS011;6664;52.514;13.440;2023-07-20T10:42:13;0.80;;;0.80;;
13197;SDS011;6664;52.514;13.440;2023-07-20T10:45:00;1.47;;;0.87;;
13197;SDS011;6664;52.514;13.440;2023-07-20T10:47:46;0.80;;;0.80;;
13197;SDS011;6664;52.514;13.440;2023-07-20T10:50:33;0.93;;;0.90;;
13197;SDS011;6664;52.514;13.440;2023-07-20T10:53:19;2.30;;;1.00;;
13197;SDS011;6664;52.514;13.440;2023-07-20T10:56:14;3.23;;;0.80;;
13197;SDS011;6664;52.514;13.440;2023-07-20T10:59:17;3.37;;;1.10;;
13197;SDS011;6664;52.514;13.440;2023-07-20T11:02:07;1.90;;;0.87;;
13197;SDS011;6664;52.514;13.440;2023-07-20T11:04:54;0.80;;;0.80;;
13197;SDS011;6664;52.514;13.440;2023-07-20T11:07:40;1.03;;;0.80;;
13197;SDS011;6664;52.514;13.440;2023-07-20T11:10:26;0.90;;;0.90;;
13197;SDS011;6664;52.514;13.440;2023-07-20T11:13:15;2.43;;;1.20;;
13197;SDS011;6664;52.514;13.440;2023-07-20T11:16:02;1.23;;;0.90;;
13197;SDS011;6664;52.514;13.440;2023-07-20T11:18:49;0.87;;;0.87;;
13197;SDS011;6664;52.514;13.440;2023-07-20T11:21:39;2.40;;;0.90;;
13197;SDS011;6664;52.514;13.440;2023-07-20T11:24:44;1.90;;;1.10;;
13197;SDS011;6664;52.514;13.440;2023-07-20T11:27:37;1.07;;;1.00;;
13197;SDS011;6664;52.514;13.440;2023-07-20T11:30:32;1.23;;;1.00;;
13197;SDS011;6664;52.514;13.440;2023-07-20T11:33:19;0.90;;;0.90;;
13197;SDS011;6664;52.514;13.440;2023-07-20T11:36:04;1.27;;;0.70;;
13197;SDS011;6664;52.514;13.440;2023-07-20T11:38:54;1.20;;;0.80;;
13197;SDS011;6664;52.514;13.440;2023-07-20T11:41:43;4.77;;;1.10;;
13197;SDS011;6664;52.514;13.440;2023-07-20T11:44:34;4.83;;;1.10;;
13197;SDS011;6664;52.514;13.440;2023-07-20T11:47:19;1.00;;;1.00;;
13197;SDS011;6664;52.514;13.440;2023-07-20T11:50:05;0.80;;;0.80;;
13197;SDS011;6664;52.514;13.440;2023-07-20T11:52:51;1.00;;;0.93;;
13197;SDS011;6664;52.514;13.440;2023-07-20T11:55:38;1.23;;;0.80;;
13197;SDS011;6664;52.514;13.440;2023-07-20T11:58:27;0.90;;;0.90;;
13197;SDS011;6664;52.514;13.440;2023-07-20T12:01:13;4.10;;;0.87;;
13197;SDS011;6664;52.514;13.440;2023-07-20T12:03:59;2.20;;;0.80;;
13197;SDS011;6664;52.514;13.440;2023-07-20T12:06:47;0.90;;;0.80;;
13197;SDS011;6664;52.514;13.440;2023-07-20T12:09:32;0.70;;;0.70;;
13197;SDS011;6664;52.514;13.440;2023-07-20T12:12:42;0.80;;;0.80;;
13197;SDS011;6664;52.514;13.440;2023-07-20T12:15:30;3.00;;;0.77;;
13197;SDS011;6664;52.514;13.440;2023-07-20T12:18:16;1.47;;;0.90;;
13197;SDS011;6664;52.514;13.440;2023-07-20T12:21:02;0.80;;;0.80;;
13197;SDS011;6664;52.514;13.440;2023-07-20T12:23:50;0.90;;;0.90;;
13197;SDS011;6664;52.514;13.440;2023-07-20T12:26:38;2.80;;;1.20;;
13197;SDS011;6664;52.514;13.440;2023-07-20T12:29:23;1.00;;;0.80;;
13197;SDS011;6664;52.514;13.440;2023-07-20T12:32:09;0.67;;;0.60;;
13197;SDS011;6664;52.514;13.440;2023-07-20T12:34:54;2.37;;;0.90;;
13197;SDS011;6664;52.514;13.440;2023-07-20T12:37:40;0.80;;;0.80;;
13197;SDS011;6664;52.514;13.440;2023-07-20T12:40:26;1.23;;;0.60;;
13197;SDS011;6664;52.514;13.440;2023-07-20T12:43:11;1.33;;;0.80;;
13197;SDS011;6664;52.514;13.440;2023-07-20T12:45:59;0.60;;;0.60;;
13197;SDS011;6664;52.514;13.440;2023-07-20T12:48:45;5.30;;;0.80;;
13197;SDS011;6664;52.514;13.440;2023-07-20T12:51:34;0.70;;;0.70;;
13197;SDS011;6664;52.514;13.440;2023-07-20T12:54:21;0.90;;;0.80;;
13197;SDS011;6664;52.514;13.440;2023-07-20T12:57:09;1.20;;;1.10;;
13197;SDS011;6664;52.514;13.440;2023-07-20T12:59:56;0.50;;;0.50;;
13197;SDS011;6664;52.514;13.440;2023-07-20T13:02:42;0.77;;;0.77;;
13197;SDS011;6664;52.514;13.440;2023-07-20T13:05:28;1.60;;;0.70;;
13197;SDS011;6664;52.514;13.440;2023-07-20T13:08:17;0.60;;;0.60;;
13197;SDS011;6664;52.514;13.440;2023-07-20T13:11:04;0.57;;;0.57;;
13197;SDS011;6664;52.514;13.440;2023-07-20T13:13:50;1.42;;;0.60;;
13197;SDS011;6664;52.514;13.440;2023-07-20T13:16:38;3.13;;;0.55;;
13197;SDS011;6664;52.514;13.440;2023-07-20T13:19:24;0.50;;;0.50;;
13197;SDS011;6664;52.514;13.440;2023-07-20T13:22:15;0.60;;;0.60;;
13197;SDS011;6664;52.514;13.440;2023-07-20T13:25:00;0.60;;;0.60;;
13197;SDS011;6664;52.514;13.440;2023-07-20T13:27:46;0.45;;;0.45;;
13197;SDS011;6664;52.514;13.440;2023-07-20T13:30:31;0.68;;;0.68;;
13197;SDS011;6664;52.514;13.440;2023-07-20T13:33:18;0.45;;;0.45;;
13197;SDS011;6664;52.514;13.440;2023-07-20T13:36:04;0.50;;;0.50;;
13197;SDS011;6664;52.514;13.440;2023-07-20T13:38:54;1.52;;;0.60;;
13197;SDS011;6664;52.514;13.440;2023-07-20T13:41:39;0.63;;;0.63;;
13197;SDS011;6664;52.514;13.440;2023-07-20T13:44:24;5.35;;;0.57;;
13197;SDS011;6664;52.514;13.440;2023-07-20T13:47:12;0.85;;;0.50;;
13197;SDS011;6664;52.514;13.440;2023-07-20T13:50:01;0.50;;;0.50;;
13197;SDS011;6664;52.514;13.440;2023-07-20T13:52:48;3.42;;;0.50;;
13197;SDS011;6664;52.514;13.440;2023-07-20T13:55:34;0.50;;;0.50;;
13197;SDS011;6664;52.514;13.440;2023-07-20T13:58:25;0.50;;;0.50;;
13197;SDS011;6664;52.514;13.440;2023-07-20T14:01:10;0.50;;;0.50;;
13197;SDS011;6664;52.514;13.440;2023-07-20T14:04:13;0.80;;;0.50;;
13197;SDS011;6664;52.514;13.440;2023-07-20T14:07:01;0.50;;;0.50;;
13197;SDS011;6664;52.514;13.440;2023-07-20T14:09:50;0.60;;;0.60;;
13197;SDS011;6664;52.514;13.440;2023-07-20T14:12:38;0.50;;;0.50;;
13197;SDS011;6664;52.514;13.440;2023-07-20T14:15:26;0.85;;;0.50;;
13197;SDS011;6664;52.514;13.440;2023-07-20T14:18:16;0.50;;;0.50;;
13197;SDS011;6664;52.514;13.440;2023-07-20T14:21:04;0.60;;;0.60;;
13197;SDS011;6664;52.514;13.440;2023-07-20T14:23:53;3.70;;;0.50;;
13197;SDS011;6664;52.514;13.440;2023-07-20T14:26:38;0.50;;;0.50;;
13197;SDS011;6664;52.514;13.440;2023-07-20T14:29:28;0.90;;;0.68;;
13197;SDS011;6664;52.514;13.440;2023-07-20T14:32:16;2.08;;;0.50;;
13197;SDS011;6664;52.514;13.440;2023-07-20T14:35:02;0.70;;;0.70;;
13197;SDS011;6664;52.514;13.440;2023-07-20T14:37:48;0.60;;;0.60;;
13197;SDS011;6664;52.514;13.440;2023-07-20T14:40:35;0.60;;;0.60;;
13197;SDS011;6664;52.514;13.440;2023-07-20T14:43:20;0.70;;;0.60;;
13197;SDS011;6664;52.514;13.440;2023-07-20T14:46:06;2.35;;;0.85;;
13197;SDS011;6664;52.514;13.440;2023-07-20T14:48:52;0.85;;;0.60;;
13197;SDS011;6664;52.514;13.440;2023-07-20T14:51:39;0.70;;;0.70;;
13197;SDS011;6664;52.514;13.440;2023-07-20T14:54:28;0.70;;;0.70;;
13197;SDS011;6664;52.514;13.440;2023-07-20T14:57:14;1.30;;;0.70;;
13197;SDS011;6664;52.514;13.440;2023-07-20T15:00:02;0.60;;;0.60;;
13197;SDS011;6664;52.514;13.440;2023-07-20T15:02:51;0.80;;;0.70;;
13197;SDS011;6664;52.514;13.440;2023-07-20T15:05:41;0.70;;;0.70;;
13197;SDS011;6664;52.514;13.440;2023-07-20T15:08:27;2.10;;;1.00;;
13197;SDS011;6664;52.514;13.440;2023-07-20T15:11:13;0.73;;;0.73;;
13197;SDS011;6664;52.514;13.440;2023-07-20T15:13:59;0.77;;;0.77;;
13197;SDS011;6664;52.514;13.440;2023-07-20T15:16:45;2.70;;;0.87;;
13197;SDS011;6664;52.514;13.440;2023-07-20T15:19:33;1.73;;;0.70;;
13197;SDS011;6664;52.514;13.440;2023-07-20T15:22:21;0.80;;;0.80;;
13197;SDS011;6664;52.514;13.440;2023-07-20T15:25:08;0.87;;;0.87;;
13197;SDS011;6664;52.514;13.440;2023-07-20T15:27:56;1.83;;;0.80;;
13197;SDS011;6664;52.514;13.440;2023-07-20T15:30:41;1.20;;;0.93;;
13197;SDS011;6664;52.514;13.440;2023-07-20T15:33:30;0.70;;;0.70;;
13197;SDS011;6664;52.514;13.440;2023-07-20T15:36:15;0.73;;;0.73;;
13197;SDS011;6664;52.514;13.440;2023-07-20T15:39:03;0.90;;;0.90;;
13197;SDS011;6664;52.514;13.440;2023-07-20T15:41:49;1.20;;;1.10;;
13197;SDS011;6664;52.514;13.440;2023-07-20T15:44:35;1.07;;;0.80;;
13197;SDS011;6664;52.514;13.440;2023-07-20T15:47:21;0.80;;;0.80;;
13197;SDS011;6664;52.514;13.440;2023-07-20T15:50:07;10.93;;;0.97;;
13197;SDS011;6664;52.514;13.440;2023-07-20T15:52:57;0.93;;;0.83;;
13197;SDS011;6664;52.514;13.440;2023-07-20T15:55:43;1.13;;;0.80;;
13197;SDS011;6664;52.514;13.440;2023-07-20T15:58:29;0.80;;;0.80;;
13197;SDS011;6664;52.514;13.440;2023-07-20T16:01:15;3.07;;;0.80;;
13197;SDS011;6664;52.514;13.440;2023-07-20T16:04:03;0.70;;;0.70;;
13197;SDS011;6664;52.514;13.440;2023-07-20T16:06:49;0.70;;;0.70;;
13197;SDS011;6664;52.514;13.440;2023-07-20T16:09:35;1.90;;;0.83;;
13197;SDS011;6664;52.514;13.440;2023-07-20T16:12:21;0.90;;;0.90;;
13197;SDS011;6664;52.514;13.440;2023-07-20T16:15:11;2.20;;;1.17;;
13197;SDS011;6664;52.514;13.440;2023-07-20T16:17:59;3.33;;;1.17;;
13197;SDS011;6664;52.514;13.440;2023-07-20T16:20:44;4.50;;;0.87;;
13197;SDS011;6664;52.514;13.440;2023-07-20T16:23:33;1.30;;;0.90;;
13197;SDS011;6664;52.514;13.440;2023-07-20T16:26:21;0.80;;;0.80;;
13197;SDS011;6664;52.514;13.440;2023-07-20T16:29:06;0.90;;;0.90;;
13197;SDS011;6664;52.514;13.440;2023-07-20T16:31:57;0.90;;;0.80;;
13197;SDS011;6664;52.514;13.440;2023-07-20T16:34:46;0.80;;;0.80;;
13197;SDS011;6664;52.514;13.440;2023-07-20T16:37:33;1.60;;;1.00;;
13197;SDS011;6664;52.514;13.440;2023-07-20T16:40:21;1.80;;;0.83;;
13197;SDS011;6664;52.514;13.440;2023-07-20T16:43:10;0.97;;;0.90;;
13197;SDS011;6664;52.514;13.440;2023-07-20T16:46:02;1.13;;;1.00;;
13197;SDS011;6664;52.514;13.440;2023-07-20T16:48:55;2.20;;;1.10;;
13197;SDS011;6664;52.514;13.440;2023-07-20T16:51:43;2.93;;;1.20;;
13197;SDS011;6664;52.514;13.440;2023-07-20T16:54:30;0.90;;;0.90;;
13197;SDS011;6664;52.514;13.440;2023-07-20T16:57:15;1.10;;;1.00;;
13197;SDS011;6664;52.514;13.440;2023-07-20T17:00:01;1.87;;;0.80;;
13197;SDS011;6664;52.514;13.440;2023-07-20T17:02:51;1.07;;;0.70;;